Pretty Hana — DSQJ5 — position and weather

sailwx.info

Track history (hours):
 
Tides and Currents Weather Stations Pressure Air Temp Water Temp Dewpoint Dewpoint Depression Visibility Wind Speed Wind Dir Waves Ship Positions

Pretty Hana

Last reported at 2017-Jun-13 10:47 UTC. Time now 2017-Jun-24 20:54 UTC.
Position N 34°35' E 134°52'.
Warning: this ship's position is 11 days out of date.

Length 64 m; draft 4.6 m.

Type: Ship (hazmat cat B). MMSI: 441600000.

Date/timePositionNaut miles runAvg speedWind from/ knotsBaromVisibWave heightAir tempDewpointWater temp
2017-Jun-13 10:47N 34°35' E 134°52'410.9
2017-Jun-13 10:23N 34°37' E 134°56'5 8.9
2017-Jun-13 09:47N 34°37' E 135°03'2 7.4
2017-Jun-13 09:29N 34°36' E 135°05'4 8.3
2017-Jun-13 09:00N 34°35' E 135°10'5 9.3
2017-Jun-13 08:30N 34°35' E 135°16'5 9.7
2017-Jun-13 08:00N 34°34' E 135°22'3 0.4
2017-Jun-12 23:00N 34°33' E 135°26'2 4.2
2017-Jun-12 22:30N 34°34' E 135°23'0 0.1
2017-Jun-12 21:44N 34°34' E 135°23'0 0.0
2017-Jun-12 21:20N 34°34' E 135°23'0 0.0
2017-Jun-12 20:50N 34°34' E 135°23'1 3.0
2017-Jun-12 20:30N 34°34' E 135°22'611.1
2017-Jun-12 20:00N 34°34' E 135°15'611.2
2017-Jun-12 19:31N 34°35' E 135°09'713.6
2017-Jun-12 19:00N 34°37' E 135°01'  
2017-Jun-08 20:08N 31°25' E 121°31'211.2
2017-Jun-08 19:59N 31°26' E 121°29'510.5
2017-Jun-08 19:30N 31°30' E 121°25'510.4
2017-Jun-08 19:00N 31°33' E 121°20'510.0
2017-Jun-08 18:30N 31°37' E 121°16'5 9.3
2017-Jun-08 18:00N 31°40' E 121°12'4 0.2
2017-Jun-07 15:24N 31°43' E 121°08'512.1
2017-Jun-07 14:59N 31°39' E 121°13'1111.7
2017-Jun-07 14:00N 31°32' E 121°23'611.6
2017-Jun-07 13:30N 31°28' E 121°28'511.0
2017-Jun-07 13:00N 31°24' E 121°33'611.1
2017-Jun-07 12:30N 31°22' E 121°39'510.3
2017-Jun-07 12:00N 31°18' E 121°43'510.5
2017-Jun-07 11:31N 31°14' E 121°47'510.0
2017-Jun-07 11:01N 31°11' E 121°51'5 9.4
2017-Jun-07 10:30N 31°08' E 121°56'5 9.1
2017-Jun-07 10:00N 31°06' E 122°00'5 9.3
2017-Jun-07 09:26N 31°04' E 122°06'  
Track history (hours):
 
Tides and Currents Weather Stations Pressure Air Temp Water Temp Dewpoint Dewpoint Depression Visibility Wind Speed Wind Dir Waves Ship Positions

Pretty Hana

Last reported at 2017-Jun-13 10:47 UTC. Time now 2017-Jun-24 20:54 UTC.
Position N 34°35' E 134°52'.
Warning: this ship's position is 11 days out of date.

Length 64 m; draft 4.6 m.

Type: Ship (hazmat cat B). MMSI: 441600000.

Date/timePositionNaut miles runAvg speedWind from/ knotsBaromVisibWave heightAir tempDewpointWater temp
2017-Jun-13 10:47N 34°35' E 134°52'410.9
2017-Jun-13 10:23N 34°37' E 134°56'5 8.9
2017-Jun-13 09:47N 34°37' E 135°03'2 7.4
2017-Jun-13 09:29N 34°36' E 135°05'4 8.3
2017-Jun-13 09:00N 34°35' E 135°10'5 9.3
2017-Jun-13 08:30N 34°35' E 135°16'5 9.7
2017-Jun-13 08:00N 34°34' E 135°22'3 0.4
2017-Jun-12 23:00N 34°33' E 135°26'2 4.2
2017-Jun-12 22:30N 34°34' E 135°23'0 0.1
2017-Jun-12 21:44N 34°34' E 135°23'0 0.0
2017-Jun-12 21:20N 34°34' E 135°23'0 0.0
2017-Jun-12 20:50N 34°34' E 135°23'1 3.0
2017-Jun-12 20:30N 34°34' E 135°22'611.1
2017-Jun-12 20:00N 34°34' E 135°15'611.2
2017-Jun-12 19:31N 34°35' E 135°09'713.6
2017-Jun-12 19:00N 34°37' E 135°01'  
2017-Jun-08 20:08N 31°25' E 121°31'211.2
2017-Jun-08 19:59N 31°26' E 121°29'510.5
2017-Jun-08 19:30N 31°30' E 121°25'510.4
2017-Jun-08 19:00N 31°33' E 121°20'510.0
2017-Jun-08 18:30N 31°37' E 121°16'5 9.3
2017-Jun-08 18:00N 31°40' E 121°12'4 0.2
2017-Jun-07 15:24N 31°43' E 121°08'512.1
2017-Jun-07 14:59N 31°39' E 121°13'1111.7
2017-Jun-07 14:00N 31°32' E 121°23'611.6
2017-Jun-07 13:30N 31°28' E 121°28'511.0
2017-Jun-07 13:00N 31°24' E 121°33'611.1
2017-Jun-07 12:30N 31°22' E 121°39'510.3
2017-Jun-07 12:00N 31°18' E 121°43'510.5
2017-Jun-07 11:31N 31°14' E 121°47'510.0
2017-Jun-07 11:01N 31°11' E 121°51'5 9.4
2017-Jun-07 10:30N 31°08' E 121°56'5 9.1
2017-Jun-07 10:00N 31°06' E 122°00'5 9.3
2017-Jun-07 09:26N 31°04' E 122°06'  

Dump ship's entire track history